createdAt,value
2023-03-24T00:00:20.476Z,49.50
2023-03-24T00:01:20.414Z,48.72
2023-03-24T00:04:50.904Z,52.20
2023-03-24T00:05:50.880Z,52.31
2023-03-24T00:06:50.862Z,54.06
2023-03-24T00:07:54.580Z,53.89
2023-03-24T00:08:50.841Z,53.76
2023-03-24T00:09:50.840Z,53.41
2023-03-24T00:10:50.829Z,53.54
2023-03-24T00:11:50.815Z,55.37
2023-03-24T00:12:50.801Z,56.89
2023-03-24T00:13:51.088Z,56.56
2023-03-24T00:14:50.778Z,56.90
2023-03-24T00:15:50.793Z,58.21
2023-03-24T00:16:50.755Z,60.06
2023-03-24T00:17:50.808Z,59.85
2023-03-24T00:18:50.753Z,61.10
2023-03-24T00:19:50.726Z,60.85
2023-03-24T00:20:50.724Z,60.21
2023-03-24T00:21:50.717Z,63.15
2023-03-24T00:22:50.718Z,63.37
2023-03-24T00:23:50.684Z,62.43
2023-03-24T00:24:50.676Z,61.74
2023-03-24T00:25:50.675Z,62.02
2023-03-24T00:26:50.669Z,62.45
2023-03-24T00:27:50.644Z,62.17
2023-03-24T00:28:50.639Z,61.55
2023-03-24T00:29:50.629Z,61.40
2023-03-24T00:30:50.623Z,60.84
2023-03-24T00:31:50.611Z,61.06
2023-03-24T00:32:50.596Z,60.96
2023-03-24T00:33:50.618Z,59.55
2023-03-24T00:34:50.576Z,58.08
2023-03-24T00:35:50.627Z,57.01
2023-03-24T00:36:50.555Z,57.00
2023-03-24T00:37:50.548Z,55.25
2023-03-24T00:38:50.559Z,52.25
2023-03-24T00:39:50.553Z,52.27
2023-03-24T00:40:50.553Z,50.59
2023-03-24T00:41:50.510Z,47.91
2023-03-24T00:42:50.529Z,49.06
2023-03-24T00:43:50.492Z,51.67
2023-03-24T00:44:50.485Z,53.13
2023-03-24T00:45:50.475Z,52.59
2023-03-24T00:46:50.520Z,54.75
2023-03-24T00:47:50.590Z,55.11
2023-03-24T00:48:50.435Z,55.79
2023-03-24T00:49:50.438Z,59.03
2023-03-24T00:50:50.425Z,62.99
2023-03-24T00:51:50.412Z,62.49
2023-03-24T00:52:50.394Z,66.23
2023-03-24T00:53:50.388Z,65.59
2023-03-24T00:54:50.376Z,61.18
2023-03-24T00:55:50.381Z,61.56
2023-03-24T00:56:50.384Z,63.39
2023-03-24T00:57:50.509Z,61.58
2023-03-24T00:58:50.333Z,62.54
2023-03-24T00:59:50.327Z,61.89
2023-03-24T01:00:50.378Z,61.07
2023-03-24T01:01:50.315Z,59.99
2023-03-24T01:02:50.319Z,61.83
2023-03-24T01:03:50.278Z,64.25
2023-03-24T01:04:50.264Z,62.98
2023-03-24T01:05:50.272Z,63.53
2023-03-24T01:06:50.241Z,65.60
2023-03-24T01:07:50.234Z,65.68
2023-03-24T01:08:50.247Z,66.78
2023-03-24T01:09:50.262Z,64.77
2023-03-24T01:10:50.295Z,62.64
2023-03-24T01:11:50.197Z,60.75
2023-03-24T01:12:50.183Z,56.70
2023-03-24T01:13:50.175Z,56.08
2023-03-24T01:14:50.163Z,55.32
2023-03-24T01:15:50.162Z,52.51
2023-03-24T01:16:50.162Z,50.92
2023-03-24T01:17:50.182Z,50.72
2023-03-24T01:18:50.114Z,48.82
2023-03-24T01:19:50.110Z,49.75
2023-03-24T01:20:50.091Z,50.30
2023-03-24T01:21:50.093Z,50.33
2023-03-24T01:22:50.081Z,51.14
2023-03-24T01:23:50.061Z,51.72
2023-03-24T01:24:50.060Z,50.27
2023-03-24T01:25:51.169Z,52.30
2023-03-24T01:26:51.164Z,52.07
2023-03-24T01:27:51.155Z,50.79
2023-03-24T01:28:51.152Z,49.69
2023-03-24T01:29:51.133Z,48.65
2023-03-24T01:30:51.109Z,48.56
2023-03-24T01:31:51.157Z,47.85
2023-03-24T01:32:51.099Z,46.41
2023-03-24T01:33:51.082Z,46.35
2023-03-24T01:34:51.071Z,47.34
2023-03-24T01:35:51.067Z,48.46
2023-03-24T01:36:51.060Z,47.76
2023-03-24T01:37:51.048Z,51.06
2023-03-24T01:38:51.024Z,45.61
2023-03-24T01:39:51.018Z,47.82
2023-03-24T01:40:51.010Z,51.70
2023-03-24T01:41:51.023Z,47.07
2023-03-24T01:42:50.999Z,47.34
2023-03-24T01:43:50.976Z,48.22
2023-03-24T01:44:50.975Z,48.29
2023-03-24T01:45:51.058Z,46.19
2023-03-24T01:46:50.964Z,46.12
2023-03-24T01:47:51.015Z,45.61
2023-03-24T01:48:50.950Z,47.74
2023-03-24T01:49:50.925Z,47.86
2023-03-24T01:50:50.907Z,49.04
2023-03-24T01:51:50.919Z,50.66
2023-03-24T01:52:50.921Z,54.82
2023-03-24T01:53:50.890Z,54.13
2023-03-24T01:54:50.871Z,53.52
2023-03-24T01:55:50.873Z,53.00
2023-03-24T01:56:50.913Z,51.17
2023-03-24T01:57:51.873Z,51.17
2023-03-24T01:58:50.849Z,48.61
2023-03-24T01:59:50.827Z,47.13
2023-03-24T02:00:50.851Z,47.22
2023-03-24T02:01:50.822Z,47.56
2023-03-24T02:02:50.852Z,46.89
2023-03-24T02:03:50.799Z,46.00
2023-03-24T02:04:50.777Z,45.83
2023-03-24T02:05:50.780Z,45.47
2023-03-24T02:06:50.779Z,47.71
2023-03-24T02:07:50.776Z,46.52
2023-03-24T02:08:50.756Z,46.72
2023-03-24T02:09:50.727Z,46.79
2023-03-24T02:10:50.717Z,45.92
2023-03-24T02:11:50.724Z,45.71
2023-03-24T02:12:50.697Z,47.05
2023-03-24T02:13:50.692Z,46.95
2023-03-24T02:14:50.687Z,45.30
2023-03-24T02:15:50.720Z,44.70
2023-03-24T02:16:50.670Z,44.50
2023-03-24T02:17:50.790Z,44.82
2023-03-24T02:18:50.645Z,45.22
2023-03-24T02:19:50.629Z,44.34
2023-03-24T02:20:50.619Z,44.64
2023-03-24T02:21:50.626Z,44.42
2023-03-24T02:22:50.612Z,43.85
2023-03-24T02:23:50.601Z,43.72
2023-03-24T02:24:50.592Z,51.28
2023-03-24T02:25:50.575Z,51.03
2023-03-24T02:26:50.600Z,43.58
2023-03-24T02:27:50.583Z,43.07
2023-03-24T02:28:50.556Z,42.85
2023-03-24T02:29:50.554Z,47.76
2023-03-24T02:30:50.527Z,45.01
2023-03-24T02:31:50.611Z,46.15
2023-03-24T02:32:50.531Z,50.33
2023-03-24T02:33:50.501Z,52.55
2023-03-24T02:34:50.500Z,52.98
2023-03-24T02:35:50.516Z,52.87
2023-03-24T02:36:50.491Z,50.70
2023-03-24T02:37:50.472Z,49.36
2023-03-24T02:38:50.463Z,47.13
2023-03-24T02:39:50.467Z,47.16
2023-03-24T02:40:50.442Z,47.66
2023-03-24T02:41:50.441Z,46.71
2023-03-24T02:42:50.468Z,46.06
2023-03-24T02:43:50.419Z,46.18
2023-03-24T02:44:50.413Z,46.92
2023-03-24T02:45:50.400Z,46.34
2023-03-24T02:46:50.426Z,47.90
2023-03-24T02:47:50.407Z,47.09
2023-03-24T02:48:50.368Z,45.67
2023-03-24T02:49:50.346Z,46.50
2023-03-24T02:50:50.337Z,44.98
2023-03-24T02:51:50.363Z,46.30
2023-03-24T02:52:50.351Z,46.97
2023-03-24T02:53:50.359Z,46.50
2023-03-24T02:54:50.316Z,46.49
2023-03-24T02:55:50.298Z,46.63
2023-03-24T02:56:50.348Z,46.42
2023-03-24T02:57:50.301Z,46.62
2023-03-24T02:58:50.272Z,48.65
2023-03-24T02:59:50.272Z,48.02
2023-03-24T03:00:50.262Z,45.45
2023-03-24T03:01:50.324Z,45.30
2023-03-24T03:02:50.297Z,44.35
2023-03-24T03:03:50.253Z,46.06
2023-03-24T03:04:50.293Z,46.93
2023-03-24T03:05:50.201Z,50.26
2023-03-24T03:06:50.187Z,51.07
2023-03-24T03:07:50.201Z,50.12
2023-03-24T03:08:50.176Z,48.47
2023-03-24T03:09:50.161Z,48.72
2023-03-24T03:10:50.152Z,48.41
2023-03-24T03:11:50.140Z,49.70
2023-03-24T03:12:50.644Z,49.02
2023-03-24T03:13:50.135Z,47.98
2023-03-24T03:14:50.120Z,51.59
2023-03-24T03:15:50.136Z,48.73
2023-03-24T03:16:50.124Z,49.11
2023-03-24T03:17:50.146Z,47.40
2023-03-24T03:18:50.112Z,47.78
2023-03-24T03:19:50.080Z,47.58
2023-03-24T03:20:50.063Z,46.26
2023-03-24T03:21:50.047Z,47.00
2023-03-24T03:22:50.053Z,46.32
2023-03-24T03:23:50.024Z,47.25
2023-03-24T03:24:50.030Z,46.87
2023-03-24T03:25:50.011Z,49.42
2023-03-24T03:26:49.997Z,48.14
2023-03-24T03:27:50.005Z,47.88
2023-03-24T03:28:50.070Z,47.80
2023-03-24T03:29:49.970Z,46.57
2023-03-24T03:30:49.984Z,48.85
2023-03-24T03:31:49.943Z,47.80
2023-03-24T03:32:50.009Z,47.75
2023-03-24T03:33:49.937Z,49.07
2023-03-24T03:34:49.934Z,50.76
2023-03-24T03:35:49.932Z,52.72
2023-03-24T03:36:49.899Z,49.43
2023-03-24T03:37:49.902Z,48.47
2023-03-24T03:38:49.888Z,48.10
2023-03-24T03:39:49.887Z,48.15
2023-03-24T03:40:49.873Z,47.99
2023-03-24T03:41:49.855Z,46.72
2023-03-24T03:42:49.871Z,51.22
2023-03-24T03:43:49.847Z,50.98
2023-03-24T03:44:49.827Z,50.50
2023-03-24T03:45:49.846Z,49.57
2023-03-24T03:46:49.808Z,48.24
2023-03-24T03:47:49.864Z,50.54
2023-03-24T03:48:49.792Z,53.10
2023-03-24T03:49:49.787Z,55.36
2023-03-24T03:50:53.318Z,50.91
2023-03-24T03:51:50.763Z,48.87
2023-03-24T03:52:49.767Z,47.08
2023-03-24T03:53:49.749Z,47.39
2023-03-24T03:54:49.732Z,47.15
2023-03-24T03:55:49.720Z,47.43
2023-03-24T03:56:49.736Z,50.59
2023-03-24T03:57:49.725Z,50.05
2023-03-24T03:58:49.688Z,47.70
2023-03-24T03:59:49.674Z,47.46
2023-03-24T04:00:49.667Z,48.20
2023-03-24T04:01:49.698Z,46.38
2023-03-24T04:02:49.704Z,46.74
2023-03-24T04:03:49.700Z,49.49
2023-03-24T04:04:59.519Z,49.33
2023-03-24T04:05:51.622Z,47.76
2023-03-24T04:06:49.613Z,46.86
2023-03-24T04:07:49.614Z,47.88
2023-03-24T04:08:49.620Z,48.86
2023-03-24T04:09:49.587Z,48.51
2023-03-24T04:10:49.579Z,45.43
2023-03-24T04:11:49.562Z,50.10
2023-03-24T04:12:49.581Z,52.12
2023-03-24T04:13:49.562Z,51.27
2023-03-24T04:14:49.542Z,51.21
2023-03-24T04:15:49.593Z,51.72
2023-03-24T04:16:49.514Z,49.26
2023-03-24T04:17:49.542Z,49.01
2023-03-24T04:18:49.506Z,50.88
2023-03-24T04:19:49.476Z,51.22
2023-03-24T04:20:49.474Z,51.10
2023-03-24T04:21:49.473Z,52.06
2023-03-24T04:22:49.452Z,57.27
2023-03-24T04:23:49.455Z,49.96
2023-03-24T04:24:49.438Z,51.49
2023-03-24T04:25:49.434Z,51.58
2023-03-24T04:26:49.418Z,56.30
2023-03-24T04:27:49.416Z,54.39
2023-03-24T04:28:49.412Z,55.92
2023-03-24T04:29:49.380Z,58.06
2023-03-24T04:30:49.397Z,60.02
2023-03-24T04:31:49.493Z,60.22
2023-03-24T04:32:49.406Z,60.83
2023-03-24T04:33:49.375Z,61.65
2023-03-24T04:34:49.355Z,61.77
2023-03-24T04:35:49.397Z,63.04
2023-03-24T04:36:49.355Z,61.40
2023-03-24T04:37:49.337Z,59.05
2023-03-24T04:38:49.318Z,60.29
2023-03-24T04:39:49.284Z,58.93
2023-03-24T04:40:50.299Z,62.00
2023-03-24T04:41:49.285Z,63.24
2023-03-24T04:42:49.283Z,62.19
2023-03-24T04:43:49.261Z,61.06
2023-03-24T04:44:49.246Z,61.87
2023-03-24T04:45:49.268Z,60.74
2023-03-24T04:46:50.249Z,59.47
2023-03-24T04:47:49.264Z,57.56
2023-03-24T04:48:49.229Z,58.90
2023-03-24T04:49:49.199Z,60.41
2023-03-24T04:50:49.191Z,60.68
2023-03-24T04:51:49.189Z,60.74
2023-03-24T04:52:49.172Z,61.32
2023-03-24T04:53:49.187Z,60.41
2023-03-24T04:54:49.157Z,64.42
2023-03-24T04:55:49.160Z,62.02
2023-03-24T04:56:49.176Z,63.85
2023-03-24T04:57:49.114Z,66.06
2023-03-24T04:58:49.125Z,65.54
2023-03-24T04:59:49.141Z,64.20
2023-03-24T05:00:49.189Z,65.03
2023-03-24T05:01:49.085Z,62.77
2023-03-24T05:02:49.087Z,61.20
2023-03-24T05:03:49.118Z,59.93
2023-03-24T05:04:49.081Z,58.68
2023-03-24T05:05:49.050Z,60.13
2023-03-24T05:06:49.040Z,61.49
2023-03-24T05:07:49.042Z,64.76
2023-03-24T05:08:49.004Z,64.66
2023-03-24T05:09:49.010Z,64.58
2023-03-24T05:10:49.005Z,65.03
2023-03-24T05:11:48.986Z,64.90
2023-03-24T05:12:48.969Z,67.29
2023-03-24T05:13:48.959Z,66.45
2023-03-24T05:14:48.986Z,67.21
2023-03-24T05:15:48.976Z,67.64
2023-03-24T05:16:49.023Z,70.29
2023-03-24T05:17:48.979Z,71.68
2023-03-24T05:18:48.930Z,69.22
2023-03-24T05:19:48.929Z,67.45
2023-03-24T05:20:48.912Z,67.50
2023-03-24T05:21:48.938Z,66.42
2023-03-24T05:22:48.884Z,67.18
2023-03-24T05:23:48.852Z,67.08
2023-03-24T05:24:48.867Z,65.49
2023-03-24T05:25:48.843Z,64.99
2023-03-24T05:26:48.829Z,64.31
2023-03-24T05:27:48.819Z,63.85
2023-03-24T05:28:48.808Z,64.04
2023-03-24T05:29:48.808Z,64.22
2023-03-24T05:30:48.810Z,65.34
2023-03-24T05:31:48.773Z,66.15
2023-03-24T05:32:48.826Z,66.42
2023-03-24T05:33:48.752Z,65.82
2023-03-24T05:34:48.761Z,62.37
2023-03-24T05:35:48.917Z,62.36
2023-03-24T05:36:48.729Z,63.31
2023-03-24T05:37:48.723Z,62.18
2023-03-24T05:38:48.710Z,62.45
2023-03-24T05:39:48.707Z,63.55
2023-03-24T05:40:49.686Z,62.03
2023-03-24T05:41:48.682Z,59.09
2023-03-24T05:42:48.676Z,58.16
2023-03-24T05:43:48.658Z,58.64
2023-03-24T05:44:48.654Z,54.61
2023-03-24T05:45:48.916Z,58.24
2023-03-24T05:46:48.651Z,58.43
2023-03-24T05:47:48.667Z,58.39
2023-03-24T05:48:48.616Z,58.14
2023-03-24T05:49:48.615Z,55.87
2023-03-24T05:50:48.596Z,56.89
2023-03-24T05:51:48.575Z,55.68
2023-03-24T05:52:48.573Z,56.05
2023-03-24T05:53:49.183Z,57.34
2023-03-24T05:54:56.142Z,55.07
2023-03-24T05:55:48.624Z,54.52
2023-03-24T05:56:51.184Z,55.49
2023-03-24T05:57:48.570Z,58.01
2023-03-24T05:58:48.554Z,57.81
2023-03-24T05:59:48.563Z,55.80
2023-03-24T06:00:48.516Z,56.51
2023-03-24T06:01:48.558Z,60.03
2023-03-24T06:02:48.614Z,56.53
2023-03-24T06:03:48.634Z,55.92
2023-03-24T06:04:48.516Z,54.65
2023-03-24T06:05:48.500Z,55.64
2023-03-24T06:06:48.499Z,54.11
2023-03-24T06:07:48.474Z,55.72
2023-03-24T06:08:48.464Z,54.07
2023-03-24T06:09:48.467Z,58.22
2023-03-24T06:10:48.487Z,54.83
2023-03-24T06:11:48.412Z,56.51
2023-03-24T06:12:48.404Z,56.62
2023-03-24T06:13:48.402Z,56.95
2023-03-24T06:14:48.428Z,53.44
2023-03-24T06:15:48.786Z,53.07
2023-03-24T06:16:48.364Z,54.11
2023-03-24T06:17:48.397Z,55.14
2023-03-24T06:18:48.365Z,57.59
2023-03-24T06:19:48.395Z,55.59
2023-03-24T06:20:48.353Z,53.48
2023-03-24T06:21:48.357Z,57.72
2023-03-24T06:22:48.312Z,60.31
2023-03-24T06:23:48.328Z,57.18
2023-03-24T06:24:48.295Z,54.19
2023-03-24T06:25:48.284Z,51.97
2023-03-24T06:26:48.276Z,55.27
2023-03-24T06:27:48.299Z,53.50
2023-03-24T06:28:48.263Z,55.73
2023-03-24T06:29:48.268Z,57.16
2023-03-24T06:30:48.316Z,52.16
2023-03-24T06:31:48.221Z,61.07
2023-03-24T06:32:48.237Z,56.47
2023-03-24T06:33:48.210Z,56.02
2023-03-24T06:34:48.178Z,56.03
2023-03-24T06:35:48.296Z,54.72
2023-03-24T06:36:48.173Z,57.77
2023-03-24T06:37:49.123Z,57.46
2023-03-24T06:38:48.154Z,53.83
2023-03-24T06:39:50.087Z,57.44
2023-03-24T06:40:48.420Z,54.82
2023-03-24T06:41:48.145Z,53.93
2023-03-24T06:42:48.773Z,55.84
2023-03-24T06:43:48.144Z,53.98
2023-03-24T06:44:48.093Z,57.28
2023-03-24T06:45:48.373Z,56.19
2023-03-24T06:46:48.108Z,55.42
2023-03-24T06:47:48.078Z,53.79
2023-03-24T06:48:48.060Z,57.26
2023-03-24T06:49:48.062Z,52.89
2023-03-24T06:50:48.045Z,53.70
2023-03-24T06:51:48.032Z,59.10
2023-03-24T06:52:48.049Z,55.94
2023-03-24T06:53:48.009Z,56.73
2023-03-24T06:54:47.990Z,55.99
2023-03-24T06:55:47.986Z,55.89
2023-03-24T06:56:47.996Z,59.98
2023-03-24T06:57:47.945Z,56.91
2023-03-24T06:58:48.948Z,55.82
2023-03-24T06:59:47.943Z,53.90
2023-03-24T07:00:48.062Z,57.49
2023-03-24T07:01:47.985Z,54.37
2023-03-24T07:02:48.003Z,54.69
2023-03-24T07:03:47.980Z,56.47
2023-03-24T07:04:47.929Z,52.45
2023-03-24T07:05:47.910Z,50.94
2023-03-24T07:07:03.582Z,54.55
2023-03-24T07:08:48.864Z,51.36
2023-03-24T07:09:47.836Z,50.73
2023-03-24T07:10:47.878Z,56.66
2023-03-24T07:11:47.858Z,56.28
2023-03-24T07:12:47.856Z,57.39
2023-03-24T07:13:47.806Z,54.32
2023-03-24T07:14:47.781Z,51.76
2023-03-24T07:15:47.821Z,53.85
2023-03-24T07:16:47.783Z,54.02
2023-03-24T07:17:47.832Z,55.02
2023-03-24T07:18:47.799Z,53.13
2023-03-24T07:19:47.775Z,52.76
2023-03-24T07:20:47.761Z,54.78
2023-03-24T07:21:47.751Z,51.07
2023-03-24T07:22:47.728Z,52.03
2023-03-24T07:23:47.702Z,49.97
2023-03-24T07:24:47.702Z,53.86
2023-03-24T07:25:47.700Z,51.41
2023-03-24T07:26:47.660Z,50.54
2023-03-24T07:27:47.653Z,56.31
2023-03-24T07:28:47.633Z,55.93
2023-03-24T07:29:47.622Z,52.09
2023-03-24T07:30:47.630Z,51.47
2023-03-24T07:31:47.665Z,53.02
2023-03-24T07:32:47.599Z,56.06
2023-03-24T07:33:47.583Z,55.23
2023-03-24T07:34:47.578Z,52.66
2023-03-24T07:35:47.716Z,50.77
2023-03-24T07:36:47.555Z,56.19
2023-03-24T07:37:47.594Z,55.40
2023-03-24T07:38:47.550Z,50.55
2023-03-24T07:39:47.550Z,50.05
2023-03-24T07:40:47.787Z,50.03
2023-03-24T07:41:47.550Z,53.74
2023-03-24T07:42:47.499Z,49.80
2023-03-24T07:43:47.530Z,55.19
2023-03-24T07:44:47.489Z,54.30
2023-03-24T07:45:47.956Z,54.25
2023-03-24T07:46:47.480Z,55.40
2023-03-24T07:47:47.516Z,51.98
2023-03-24T07:48:47.458Z,50.66
2023-03-24T07:49:47.457Z,53.95
2023-03-24T07:50:47.510Z,53.28
2023-03-24T07:51:47.434Z,50.68
2023-03-24T07:52:47.444Z,54.52
2023-03-24T07:53:47.444Z,54.02
2023-03-24T07:54:47.475Z,55.25
2023-03-24T07:55:47.433Z,48.50
2023-03-24T07:56:47.399Z,50.37
2023-03-24T07:57:47.361Z,53.51
2023-03-24T07:58:47.392Z,50.31
2023-03-24T07:59:47.325Z,54.93
2023-03-24T08:00:47.501Z,50.76
2023-03-24T08:01:48.653Z,53.33
2023-03-24T08:02:48.437Z,53.70
2023-03-24T08:03:47.473Z,51.24
2023-03-24T08:04:47.312Z,51.66
2023-03-24T08:05:47.552Z,47.10
2023-03-24T08:06:47.325Z,53.23
2023-03-24T08:07:47.284Z,49.74
2023-03-24T08:08:47.253Z,50.45
2023-03-24T08:09:47.225Z,50.47
2023-03-24T08:10:47.473Z,53.94
2023-03-24T08:11:47.217Z,51.40
2023-03-24T08:12:47.194Z,54.49
2023-03-24T08:13:47.198Z,54.08
2023-03-24T08:14:47.202Z,50.74
2023-03-24T08:15:47.329Z,53.58
2023-03-24T08:16:47.207Z,55.51
2023-03-24T08:17:47.169Z,57.18
2023-03-24T08:18:47.946Z,53.64
2023-03-24T08:19:59.060Z,50.20
2023-03-24T08:20:49.124Z,50.77
2023-03-24T08:21:47.119Z,52.49
2023-03-24T08:22:47.333Z,53.25
2023-03-24T08:23:47.085Z,52.45
2023-03-24T08:24:47.084Z,49.39
2023-03-24T08:25:47.279Z,53.05
2023-03-24T08:26:47.078Z,51.62
2023-03-24T08:27:47.055Z,51.97
2023-03-24T08:28:47.108Z,53.50
2023-03-24T08:29:47.096Z,53.37
2023-03-24T08:30:47.383Z,50.47
2023-03-24T08:31:47.133Z,54.03
2023-03-24T08:32:47.145Z,51.74
2023-03-24T08:33:47.063Z,50.79
2023-03-24T08:34:47.031Z,48.87
2023-03-24T08:35:47.656Z,48.53
2023-03-24T08:36:46.966Z,49.57
2023-03-24T08:37:47.176Z,52.39
2023-03-24T08:38:46.939Z,49.80
2023-03-24T08:39:46.966Z,54.07
2023-03-24T08:40:46.952Z,53.09
2023-03-24T08:41:46.932Z,50.59
2023-03-24T08:42:46.948Z,53.33
2023-03-24T08:43:46.933Z,53.51
2023-03-24T08:44:46.900Z,52.00
2023-03-24T08:45:47.195Z,52.92
2023-03-24T08:46:47.015Z,54.32
2023-03-24T08:47:46.958Z,50.77
2023-03-24T08:48:46.882Z,56.56
2023-03-24T08:49:46.845Z,57.01
2023-03-24T08:50:46.845Z,54.04
2023-03-24T08:51:46.833Z,50.26
2023-03-24T08:52:46.830Z,55.53
2023-03-24T08:53:46.840Z,53.19
2023-03-24T08:54:46.818Z,50.17
2023-03-24T08:55:47.098Z,49.19
2023-03-24T08:56:46.917Z,55.38
2023-03-24T08:57:46.797Z,54.24
2023-03-24T08:58:46.759Z,49.09
2023-03-24T08:59:47.335Z,48.22
2023-03-24T09:00:46.766Z,52.63
2023-03-24T09:01:46.776Z,54.73
2023-03-24T09:02:46.808Z,50.08
2023-03-24T09:03:46.706Z,50.70
2023-03-24T09:04:46.659Z,52.93
2023-03-24T09:05:46.650Z,48.03
2023-03-24T09:06:46.640Z,52.55
2023-03-24T09:07:46.650Z,53.04
2023-03-24T09:08:46.624Z,52.91
2023-03-24T09:09:46.604Z,47.92
2023-03-24T09:10:46.606Z,49.45
2023-03-24T09:11:46.575Z,53.36
2023-03-24T09:12:46.573Z,53.10
2023-03-24T09:13:46.579Z,50.86
2023-03-24T09:14:46.604Z,49.36
2023-03-24T09:15:46.872Z,49.41
2023-03-24T09:16:46.540Z,52.85
2023-03-24T09:17:46.666Z,51.91
2023-03-24T09:18:46.526Z,55.33
2023-03-24T09:19:46.494Z,49.40
2023-03-24T09:20:46.798Z,52.70
2023-03-24T09:21:46.505Z,56.56
2023-03-24T09:22:46.535Z,61.39
2023-03-24T09:23:46.491Z,58.87
2023-03-24T09:24:46.472Z,57.36
2023-03-24T09:25:46.622Z,59.16
2023-03-24T09:26:46.441Z,64.19
2023-03-24T09:27:46.483Z,62.78
2023-03-24T09:28:46.449Z,56.26
2023-03-24T09:29:46.429Z,58.12
2023-03-24T09:30:46.489Z,58.05
2023-03-24T09:31:46.449Z,59.56
2023-03-24T09:32:46.410Z,55.83
2023-03-24T09:33:46.363Z,53.38
2023-03-24T09:34:46.371Z,53.22
2023-03-24T09:35:46.379Z,52.20
2023-03-24T09:36:46.362Z,49.72
2023-03-24T09:37:46.371Z,50.51
2023-03-24T09:38:46.329Z,55.45
2023-03-24T09:39:46.330Z,56.71
2023-03-24T09:40:46.420Z,53.78
2023-03-24T09:41:46.328Z,56.19
2023-03-24T09:42:46.784Z,52.95
2023-03-24T09:43:47.279Z,54.43
2023-03-24T09:44:46.275Z,55.64
2023-03-24T09:45:46.521Z,54.62
2023-03-24T09:46:46.322Z,55.95
2023-03-24T09:47:46.299Z,55.49
2023-03-24T09:48:46.217Z,55.95
2023-03-24T09:49:46.217Z,55.49
2023-03-24T09:50:46.290Z,56.24
2023-03-24T09:51:46.241Z,54.22
2023-03-24T09:52:46.262Z,54.66
2023-03-24T09:53:46.228Z,50.22
2023-03-24T09:54:46.257Z,48.78
2023-03-24T09:55:46.326Z,53.70
2023-03-24T09:56:46.259Z,52.46
2023-03-24T09:57:46.192Z,55.16
2023-03-24T09:58:46.176Z,55.68
2023-03-24T09:59:46.306Z,57.87
2023-03-24T10:00:46.227Z,53.05
2023-03-24T10:01:46.117Z,55.04
2023-03-24T10:02:46.295Z,59.45
2023-03-24T10:03:46.264Z,58.20
2023-03-24T10:04:46.157Z,56.52
2023-03-24T10:05:46.136Z,57.13
2023-03-24T10:06:46.175Z,54.36
2023-03-24T10:07:46.088Z,56.59
2023-03-24T10:08:46.112Z,50.72
2023-03-24T10:09:46.058Z,50.12
2023-03-24T10:10:46.104Z,51.93
2023-03-24T10:11:47.109Z,56.47
2023-03-24T10:12:46.023Z,56.90
2023-03-24T10:13:46.017Z,59.37
2023-03-24T10:14:46.002Z,59.02
2023-03-24T10:15:46.036Z,61.50
2023-03-24T10:16:46.010Z,61.43
2023-03-24T10:17:46.079Z,57.99
2023-03-24T10:18:45.990Z,57.81
2023-03-24T10:19:45.971Z,59.74
2023-03-24T10:20:45.940Z,59.10
2023-03-24T10:21:45.941Z,59.01
2023-03-24T10:22:45.929Z,60.41
2023-03-24T10:23:45.966Z,59.04
2023-03-24T10:24:45.907Z,57.81
2023-03-24T10:25:46.128Z,59.31
2023-03-24T10:26:45.922Z,57.52
2023-03-24T10:27:45.867Z,56.80
2023-03-24T10:28:45.882Z,56.31
2023-03-24T10:29:45.894Z,55.72
2023-03-24T10:30:48.158Z,54.05
2023-03-24T10:31:46.001Z,56.31
2023-03-24T10:32:45.851Z,51.41
2023-03-24T10:33:45.853Z,53.15
2023-03-24T10:34:45.822Z,54.09
2023-03-24T10:35:45.886Z,58.24
2023-03-24T10:36:45.800Z,59.85
2023-03-24T10:37:46.323Z,55.42
2023-03-24T10:38:45.810Z,55.04
2023-03-24T10:39:45.779Z,56.48
2023-03-24T10:40:45.770Z,56.14
2023-03-24T10:41:45.797Z,57.27
2023-03-24T10:42:45.762Z,58.15
2023-03-24T10:43:45.772Z,59.15
2023-03-24T10:44:45.763Z,55.03
2023-03-24T10:45:45.938Z,52.45
2023-03-24T10:46:45.755Z,54.32
2023-03-24T10:47:45.754Z,50.18
2023-03-24T10:48:45.766Z,54.33
2023-03-24T10:49:45.693Z,52.01
2023-03-24T10:50:45.681Z,49.39
2023-03-24T10:51:45.625Z,57.94
2023-03-24T10:52:45.634Z,54.62
2023-03-24T10:53:45.645Z,55.73
2023-03-24T10:54:45.633Z,55.68
2023-03-24T10:55:45.759Z,57.37
2023-03-24T10:56:45.646Z,56.96
2023-03-24T10:57:45.590Z,58.76
2023-03-24T10:58:45.585Z,57.75
2023-03-24T10:59:45.533Z,63.11
2023-03-24T11:00:46.539Z,61.09
2023-03-24T11:01:45.700Z,61.04
2023-03-24T11:02:45.626Z,59.21
2023-03-24T11:03:45.576Z,57.82
2023-03-24T11:04:45.538Z,58.47
2023-03-24T11:05:45.544Z,56.99
2023-03-24T11:06:45.499Z,59.20
2023-03-24T11:07:45.507Z,56.59
2023-03-24T11:08:45.472Z,58.90
2023-03-24T11:09:45.573Z,55.43
2023-03-24T11:10:45.456Z,49.79
2023-03-24T11:11:45.418Z,53.64
2023-03-24T11:12:45.471Z,56.76
2023-03-24T11:13:45.417Z,52.56
2023-03-24T11:14:45.442Z,50.65
2023-03-24T11:15:45.430Z,54.21
2023-03-24T11:16:45.410Z,55.89
2023-03-24T11:17:45.419Z,54.88
2023-03-24T11:18:45.345Z,55.03
2023-03-24T11:19:45.347Z,55.19
2023-03-24T11:20:45.328Z,52.88
2023-03-24T11:21:45.323Z,58.91
2023-03-24T11:22:45.309Z,53.03
2023-03-24T11:23:45.291Z,51.48
2023-03-24T11:24:45.290Z,52.00
2023-03-24T11:25:45.267Z,55.84
2023-03-24T11:26:45.251Z,54.30
2023-03-24T11:27:45.265Z,54.77
2023-03-24T11:28:45.264Z,53.98
2023-03-24T11:29:45.270Z,56.68
2023-03-24T11:30:45.897Z,57.75
2023-03-24T11:31:46.249Z,57.11
2023-03-24T11:32:45.256Z,56.72
2023-03-24T11:33:45.215Z,54.69
2023-03-24T11:34:45.196Z,52.51
2023-03-24T11:35:50.353Z,55.24
2023-03-24T11:36:47.702Z,55.79
2023-03-24T11:37:46.157Z,56.42
2023-03-24T11:38:45.146Z,51.57
2023-03-24T11:39:45.140Z,53.52
2023-03-24T11:40:45.132Z,58.83
2023-03-24T11:41:45.113Z,57.69
2023-03-24T11:42:45.973Z,51.97
2023-03-24T11:43:46.095Z,55.81
2023-03-24T11:44:45.108Z,52.76
2023-03-24T11:45:45.078Z,55.49
2023-03-24T11:46:45.172Z,52.45
2023-03-24T11:47:45.197Z,55.68
2023-03-24T11:48:45.143Z,51.94
2023-03-24T11:49:45.795Z,53.09
2023-03-24T11:50:45.157Z,51.39
2023-03-24T11:51:45.072Z,50.74
2023-03-24T11:52:45.084Z,56.03
2023-03-24T11:53:46.474Z,51.78
2023-03-24T11:54:45.044Z,51.61
2023-03-24T11:55:45.039Z,56.56
2023-03-24T11:56:45.059Z,55.19
2023-03-24T11:57:45.011Z,52.23
2023-03-24T11:58:44.997Z,55.23
2023-03-24T11:59:44.992Z,53.96
2023-03-24T12:00:45.021Z,57.02
2023-03-24T12:01:45.002Z,54.77
2023-03-24T12:02:45.066Z,52.34
2023-03-24T12:03:45.009Z,54.47
2023-03-24T12:04:44.918Z,53.30
2023-03-24T12:05:45.007Z,60.41
2023-03-24T12:06:44.945Z,55.18
2023-03-24T12:07:44.902Z,56.78
2023-03-24T12:08:44.905Z,55.81
2023-03-24T12:09:44.924Z,55.98
2023-03-24T12:10:44.911Z,54.79
2023-03-24T12:11:44.869Z,50.99
2023-03-24T12:12:44.851Z,53.54
2023-03-24T12:13:44.859Z,53.43
2023-03-24T12:14:44.842Z,58.04
2023-03-24T12:15:44.883Z,50.76
2023-03-24T12:16:44.965Z,52.49
2023-03-24T12:17:44.848Z,55.63
2023-03-24T12:18:44.821Z,53.33
2023-03-24T12:19:44.814Z,55.81
2023-03-24T12:20:44.838Z,54.42
2023-03-24T12:21:44.786Z,55.38
2023-03-24T12:22:45.027Z,57.27
2023-03-24T12:23:44.792Z,53.96
2023-03-24T12:24:44.748Z,54.47
2023-03-24T12:25:44.774Z,52.92
2023-03-24T12:26:44.770Z,56.02
2023-03-24T12:27:44.733Z,59.02
2023-03-24T12:28:44.704Z,53.22
2023-03-24T12:29:44.725Z,54.41
2023-03-24T12:30:44.704Z,53.52
2023-03-24T12:31:44.737Z,56.63
2023-03-24T12:32:44.732Z,52.18
2023-03-24T12:33:44.646Z,57.07
2023-03-24T12:34:44.665Z,54.45
2023-03-24T12:35:44.700Z,56.98
2023-03-24T12:36:44.648Z,53.12
2023-03-24T12:37:44.642Z,48.27
2023-03-24T12:38:44.615Z,54.72
2023-03-24T12:39:44.616Z,53.43
2023-03-24T12:40:44.604Z,50.93
2023-03-24T12:41:44.557Z,55.35
2023-03-24T12:42:44.568Z,50.24
2023-03-24T12:43:44.548Z,50.34
2023-03-24T12:44:44.575Z,47.52
2023-03-24T12:45:44.612Z,52.90
2023-03-24T12:46:48.097Z,48.78
2023-03-24T12:47:45.557Z,44.58
2023-03-24T12:48:44.540Z,48.53
2023-03-24T12:49:44.493Z,49.07
2023-03-24T12:50:44.533Z,53.14
2023-03-24T12:51:44.497Z,46.99
2023-03-24T12:52:47.223Z,56.57
2023-03-24T12:53:44.460Z,46.10
2023-03-24T12:54:44.486Z,52.19
2023-03-24T12:55:44.470Z,52.01